Wetterdaten: Woche 30.10.17 - 05.11.17 (KW44)
Datum Zeit Temp. Aussen Temp. o. S. +5cm Feuchte Auss BlattFeu 1 Luftdruck Regen Sonnenschein Regendauer Solar Windben Empfang
30.10.2017 00:00 6,1 C 5,6 C 4,6 C 92 % 1 lf 1021,3 hPa 0,0 l/m 0,00 h 0,00 h 0 W/m 14,8 km/h (3 Bft) 96,75 %
30.10.2017 01:00 6,3 C 6,1 C 5,0 C 93 % 1 lf 1021,7 hPa 0,0 l/m 0,00 h 0,00 h 0 W/m 11,3 km/h (2 Bft) 97,93 %
30.10.2017 02:00 6,0 C 4,8 C 3,4 C 91 % 1 lf 1021,9 hPa 0,0 l/m 0,00 h 0,00 h 0 W/m 9,7 km/h (2 Bft) 95,92 %
30.10.2017 03:00 5,4 C 4,5 C 3,4 C 92 % 2 lf 1022,1 hPa 0,0 l/m 0,00 h 0,00 h 0 W/m 10,9 km/h (2 Bft) 97,78 %
30.10.2017 04:00 5,3 C 5,1 C 4,1 C 93 % 1 lf 1022,6 hPa 0,0 l/m 0,00 h 0,00 h 0 W/m 9,8 km/h (2 Bft) 95,67 %
30.10.2017 05:00 5,4 C 4,7 C 3,6 C 93 % 1 lf 1023,2 hPa 0,0 l/m 0,00 h 0,00 h 0 W/m 10,9 km/h (2 Bft) 96,22 %
30.10.2017 06:00 4,9 C 3,8 C 2,6 C 93 % 2 lf 1023,6 hPa 0,0 l/m 0,00 h 0,00 h 0 W/m 9,8 km/h (2 Bft) 98,01 %
30.10.2017 07:00 4,6 C 4,0 C 2,8 C 93 % 2 lf 1024,0 hPa 0,0 l/m 0,20 h 0,00 h 17 W/m 11,5 km/h (2 Bft) 98,26 %
30.10.2017 08:00 4,9 C 5,6 C 4,0 C 94 % 1 lf 1024,9 hPa 0,0 l/m 0,83 h 0,00 h 91 W/m 11,7 km/h (2 Bft) 93,97 %
30.10.2017 09:00 6,6 C 14,8 C 6,2 C 94 % 0 lf 1025,4 hPa 0,0 l/m 1,00 h 0,00 h 223 W/m 14,8 km/h (3 Bft) 98,26 %
30.10.2017 10:00 9,1 C 19,2 C 7,9 C 85 % 0 lf 1025,7 hPa 0,0 l/m 1,00 h 0,00 h 326 W/m 13,8 km/h (3 Bft) 96,04 %
30.10.2017 11:00 10,6 C 20,6 C 9,2 C 77 % 0 lf 1026,0 hPa 0,0 l/m 1,00 h 0,00 h 390 W/m 17,1 km/h (3 Bft) 94,69 %
30.10.2017 12:00 11,0 C 17,6 C 10,0 C 73 % 0 lf 1026,2 hPa 0,0 l/m 0,73 h 0,00 h 341 W/m 17,4 km/h (3 Bft) 99,41 %
30.10.2017 13:00 11,2 C 14,3 C 10,6 C 71 % 0 lf 1026,3 hPa 0,0 l/m 0,20 h 0,00 h 186 W/m 15,3 km/h (3 Bft) 96,23 %
30.10.2017 14:00 11,2 C 16,0 C 9,6 C 71 % 0 lf 1026,3 hPa 0,0 l/m 0,60 h 0,00 h 199 W/m 12,3 km/h (3 Bft) 97,03 %
30.10.2017 15:00 11,1 C 13,6 C 9,7 C 72 % 0 lf 1026,3 hPa 0,0 l/m 0,53 h 0,00 h 134 W/m 14,0 km/h (3 Bft) 94,76 %
30.10.2017 16:00 10,3 C 9,5 C 7,5 C 73 % 0 lf 1026,5 hPa 0,0 l/m 0,13 h 0,00 h 36 W/m 11,7 km/h (2 Bft) 97,40 %
30.10.2017 17:00 8,9 C 6,8 C 5,0 C 76 % 0 lf 1026,8 hPa 0,0 l/m 0,00 h 0,00 h 5 W/m 4,3 km/h (1 Bft) 98,91 %
30.10.2017 18:00 7,4 C 5,0 C 3,5 C 81 % 1 lf 1026,9 hPa 0,0 l/m 0,00 h 0,00 h 0 W/m 5,2 km/h (1 Bft) 95,95 %
30.10.2017 19:00 6,3 C 5,2 C 4,0 C 84 % 1 lf 1027,1 hPa 0,0 l/m 0,00 h 0,00 h 0 W/m 3,5 km/h (1 Bft) 95,79 %
30.10.2017 20:00 6,2 C 5,2 C 3,9 C 88 % 1 lf 1027,5 hPa 0,0 l/m 0,00 h 0,00 h 0 W/m 2,9 km/h (1 Bft) 95,44 %
30.10.2017 21:00 5,6 C 4,0 C 2,7 C 88 % 3 lf 1027,6 hPa 0,0 l/m 0,00 h 0,00 h 0 W/m 4,6 km/h (1 Bft) 98,38 %
30.10.2017 22:00 4,7 C 3,4 C 2,4 C 89 % 8 lf 1027,8 hPa 0,0 l/m 0,00 h 0,00 h 0 W/m 4,0 km/h (1 Bft) 95,94 %
30.10.2017 23:00 4,6 C 4,8 C 3,9 C 91 % 3 lf 1027,6 hPa 0,0 l/m 0,00 h 0,00 h 0 W/m 5,2 km/h (1 Bft) 96,72 %
31.10.2017 00:00 5,4 C 5,7 C 4,8 C 93 % 1 lf 1027,6 hPa 0,0 l/m 0,00 h 0,00 h 0 W/m 4,5 km/h (1 Bft) 91,15 %
31.10.2017 01:00 6,0 C 6,1 C 5,2 C 94 % 1 lf 1027,3 hPa 0,0 l/m 0,00 h 0,00 h 0 W/m 4,7 km/h (1 Bft) 94,45 %
31.10.2017 02:00 6,4 C 6,2 C 5,6 C 95 % 1 lf 1027,1 hPa 0,0 l/m 0,00 h 0,00 h 0 W/m 4,8 km/h (1 Bft) 99,22 %
31.10.2017 03:00 6,5 C 6,7 C 5,6 C 94 % 1 lf 1026,7 hPa 0,0 l/m 0,00 h 0,00 h 0 W/m 4,3 km/h (1 Bft) 98,01 %
31.10.2017 04:00 6,7 C 6,7 C 5,6 C 94 % 1 lf 1026,6 hPa 0,0 l/m 0,00 h 0,00 h 0 W/m 7,7 km/h (2 Bft) 94,24 %
31.10.2017 05:00 6,9 C 6,7 C 6,0 C 94 % 1 lf 1026,5 hPa 0,0 l/m 0,00 h 0,00 h 0 W/m 9,7 km/h (2 Bft) 97,03 %
31.10.2017 06:00 6,9 C 6,7 C 5,9 C 94 % 1 lf 1026,2 hPa 0,0 l/m 0,00 h 0,00 h 0 W/m 9,2 km/h (2 Bft) 98,18 %
31.10.2017 07:00 7,1 C 7,0 C 6,1 C 94 % 1 lf 1026,3 hPa 0,0 l/m 0,00 h 0,00 h 9 W/m 9,2 km/h (2 Bft) 94,92 %
31.10.2017 08:00 7,3 C 7,5 C 6,7 C 94 % 0 lf 1026,4 hPa 0,2 l/m 0,00 h 0,00 h 28 W/m 10,4 km/h (2 Bft) 96,90 %
31.10.2017 09:00 7,8 C 8,7 C 7,8 C 93 % 0 lf 1026,5 hPa 0,0 l/m 0,00 h 0,00 h 76 W/m 12,5 km/h (3 Bft) 96,19 %
31.10.2017 10:00 8,9 C 10,7 C 9,3 C 90 % 0 lf 1026,3 hPa 0,0 l/m 0,20 h 0,00 h 151 W/m 17,8 km/h (3 Bft) 95,62 %
31.10.2017 11:00 10,0 C 11,9 C 10,6 C 85 % 0 lf 1026,1 hPa 0,0 l/m 0,30 h 0,00 h 183 W/m 17,1 km/h (3 Bft) 97,93 %
31.10.2017 12:00 10,6 C 12,2 C 11,0 C 83 % 0 lf 1025,6 hPa 0,0 l/m 0,23 h 0,00 h 178 W/m 18,9 km/h (3 Bft) 95,44 %
31.10.2017 13:00 10,8 C 11,5 C 10,5 C 81 % 2 lf 1025,3 hPa 0,0 l/m 0,00 h 0,10 h 113 W/m 18,5 km/h (3 Bft) 95,73 %
31.10.2017 14:00 10,6 C 10,9 C 9,9 C 82 % 2 lf 1025,0 hPa 0,0 l/m 0,00 h 0,10 h 82 W/m 16,0 km/h (3 Bft) 99,00 %
31.10.2017 15:00 10,4 C 10,1 C 8,9 C 81 % 4 lf 1024,5 hPa 0,0 l/m 0,00 h 0,27 h 32 W/m 14,2 km/h (3 Bft) 94,02 %
31.10.2017 16:00 10,0 C 9,9 C 8,8 C 83 % 0 lf 1024,0 hPa 0,0 l/m 0,00 h 0,07 h 9 W/m 12,4 km/h (3 Bft) 97,08 %
31.10.2017 17:00 9,8 C 9,4 C 8,2 C 83 % 1 lf 1023,9 hPa 0,0 l/m 0,00 h 0,17 h 0 W/m 12,6 km/h (3 Bft) 97,86 %
31.10.2017 18:00 9,7 C 9,5 C 8,4 C 84 % 0 lf 1023,9 hPa 0,0 l/m 0,00 h 0,00 h 0 W/m 13,6 km/h (3 Bft) 96,18 %
31.10.2017 19:00 9,7 C 8,8 C 7,6 C 84 % 4 lf 1023,6 hPa 0,0 l/m 0,00 h 0,27 h 0 W/m 14,9 km/h (3 Bft) 95,24 %
31.10.2017 20:00 9,4 C 9,3 C 8,1 C 84 % 0 lf 1023,3 hPa 0,0 l/m 0,00 h 0,10 h 0 W/m 17,4 km/h (3 Bft) 98,36 %
31.10.2017 21:00 9,5 C 9,4 C 8,3 C 84 % 0 lf 1023,0 hPa 0,0 l/m 0,00 h 0,00 h 0 W/m 17,6 km/h (3 Bft) 95,23 %
31.10.2017 22:00 9,7 C 9,4 C 8,3 C 84 % 0 lf 1022,8 hPa 0,0 l/m 0,00 h 0,00 h 0 W/m 17,1 km/h (3 Bft) 97,79 %
31.10.2017 23:00 9,7 C 9,1 C 7,9 C 85 % 4 lf 1022,4 hPa 0,0 l/m 0,00 h 0,33 h 0 W/m 18,4 km/h (3 Bft) 96,16 %
01.11.2017 00:00 9,3 C 8,7 C 7,6 C 89 % 2 lf 1022,1 hPa 0,0 l/m 0,00 h 0,10 h 0 W/m 16,8 km/h (3 Bft) 94,94 %
01.11.2017 01:00 9,2 C 9,2 C 8,1 C 89 % 0 lf 1022,0 hPa 0,0 l/m 0,00 h 0,00 h 0 W/m 18,9 km/h (3 Bft) 98,58 %
01.11.2017 02:00 9,4 C 9,4 C 8,3 C 88 % 0 lf 1021,9 hPa 0,0 l/m 0,00 h 0,00 h 0 W/m 14,1 km/h (3 Bft) 97,22 %
01.11.2017 03:00 9,6 C 9,4 C 8,3 C 89 % 0 lf 1021,7 hPa 0,0 l/m 0,00 h 0,00 h 0 W/m 14,2 km/h (3 Bft) 93,74 %
01.11.2017 04:00 9,7 C 9,4 C 8,3 C 89 % 0 lf 1021,6 hPa 0,0 l/m 0,00 h 0,00 h 0 W/m 13,6 km/h (3 Bft) 97,57 %
01.11.2017 05:00 9,7 C 9,4 C 8,4 C 89 % 0 lf 1021,4 hPa 0,0 l/m 0,00 h 0,00 h 0 W/m 17,5 km/h (3 Bft) 97,14 %
01.11.2017 06:00 9,7 C 9,4 C 8,3 C 90 % 0 lf 1021,3 hPa 0,0 l/m 0,00 h 0,00 h 0 W/m 17,4 km/h (3 Bft) 97,22 %
01.11.2017 07:00 9,6 C 9,4 C 8,3 C 90 % 0 lf 1021,6 hPa 0,0 l/m 0,00 h 0,00 h 10 W/m 13,7 km/h (3 Bft) 97,96 %
01.11.2017 08:00 9,7 C 9,8 C 8,9 C 91 % 0 lf 1021,9 hPa 0,0 l/m 0,00 h 0,00 h 31 W/m 15,2 km/h (3 Bft) 95,00 %
01.11.2017 09:00 9,9 C 10,6 C 9,7 C 90 % 0 lf 1022,1 hPa 0,0 l/m 0,07 h 0,00 h 88 W/m 15,1 km/h (3 Bft) 97,51 %
01.11.2017 10:00 10,4 C 11,4 C 10,5 C 89 % 0 lf 1022,0 hPa 0,0 l/m 0,07 h 0,00 h 133 W/m 18,9 km/h (3 Bft) 96,08 %
01.11.2017 11:00 11,2 C 16,1 C 11,5 C 88 % 0 lf 1021,8 hPa 0,0 l/m 0,87 h 0,00 h 295 W/m 18,1 km/h (3 Bft) 96,01 %
01.11.2017 12:00 13,3 C 21,3 C 12,1 C 79 % 0 lf 1021,2 hPa 0,0 l/m 1,00 h 0,00 h 363 W/m 14,7 km/h (3 Bft) 96,54 %
01.11.2017 13:00 14,5 C 21,1 C 12,7 C 75 % 0 lf 1020,4 hPa 0,0 l/m 1,00 h 0,00 h 319 W/m 14,0 km/h (3 Bft) 94,09 %
01.11.2017 14:00 14,3 C 17,1 C 12,3 C 74 % 0 lf 1019,8 hPa 0,0 l/m 0,73 h 0,00 h 166 W/m 13,2 km/h (3 Bft) 98,58 %
01.11.2017 15:00 14,0 C 14,9 C 11,9 C 73 % 0 lf 1019,4 hPa 0,0 l/m 0,33 h 0,00 h 98 W/m 10,3 km/h (2 Bft) 97,36 %
01.11.2017 16:00 13,3 C 12,6 C 10,4 C 74 % 0 lf 1019,0 hPa 0,0 l/m 0,00 h 0,00 h 33 W/m 7,3 km/h (2 Bft) 94,59 %
01.11.2017 17:00 12,1 C 10,1 C 7,7 C 78 % 0 lf 1018,5 hPa 0,0 l/m 0,00 h 0,00 h 4 W/m 4,5 km/h (1 Bft) 98,29 %
01.11.2017 18:00 10,5 C 9,3 C 7,2 C 83 % 0 lf 1018,3 hPa 0,0 l/m 0,00 h 0,00 h 0 W/m 4,6 km/h (1 Bft) 97,17 %
01.11.2017 19:00 9,6 C 8,8 C 6,9 C 86 % 0 lf 1017,8 hPa 0,0 l/m 0,00 h 0,00 h 0 W/m 4,4 km/h (1 Bft) 92,53 %
01.11.2017 20:00 9,3 C 9,3 C 7,5 C 89 % 0 lf 1017,3 hPa 0,0 l/m 0,00 h 0,00 h 0 W/m 5,0 km/h (1 Bft) 98,23 %
01.11.2017 21:00 9,7 C 10,0 C 8,2 C 91 % 0 lf 1016,8 hPa 0,0 l/m 0,00 h 0,00 h 0 W/m 6,8 km/h (2 Bft) 98,01 %
01.11.2017 22:00 10,2 C 10,0 C 8,9 C 89 % 0 lf 1015,9 hPa 0,0 l/m 0,00 h 0,00 h 0 W/m 9,4 km/h (2 Bft) 94,52 %
01.11.2017 23:00 10,1 C 10,0 C 8,9 C 89 % 0 lf 1015,4 hPa 0,0 l/m 0,00 h 0,00 h 0 W/m 7,8 km/h (2 Bft) 96,65 %
02.11.2017 00:00 9,9 C 9,5 C 8,2 C 90 % 0 lf 1014,6 hPa 0,0 l/m 0,00 h 0,00 h 0 W/m 8,8 km/h (2 Bft) 98,03 %
02.11.2017 01:00 9,5 C 8,6 C 7,2 C 91 % 0 lf 1013,9 hPa 0,0 l/m 0,00 h 0,00 h 0 W/m 4,5 km/h (1 Bft) 94,80 %
02.11.2017 02:00 8,6 C 7,4 C 5,6 C 91 % 3 lf 1013,0 hPa 0,0 l/m 0,00 h 0,00 h 0 W/m 5,7 km/h (1 Bft) 98,36 %
02.11.2017 03:00 7,9 C 7,0 C 4,8 C 92 % 7 lf 1012,5 hPa 0,0 l/m 0,00 h 0,00 h 0 W/m 5,0 km/h (1 Bft) 94,45 %
02.11.2017 04:00 7,1 C 6,4 C 4,4 C 93 % 15 lf 1011,9 hPa 0,0 l/m 0,00 h 0,00 h 0 W/m 6,9 km/h (2 Bft) 96,94 %
02.11.2017 05:00 6,9 C 7,4 C 4,8 C 94 % 6 lf 1011,5 hPa 0,0 l/m 0,00 h 0,00 h 0 W/m 9,6 km/h (2 Bft) 97,68 %
02.11.2017 06:00 7,4 C 7,3 C 5,6 C 92 % 0 lf 1011,6 hPa 0,0 l/m 0,00 h 0,00 h 0 W/m 13,1 km/h (3 Bft) 96,09 %
02.11.2017 07:00 7,8 C 7,6 C 6,1 C 89 % 0 lf 1011,9 hPa 0,0 l/m 0,00 h 0,00 h 11 W/m 14,2 km/h (3 Bft) 94,27 %
02.11.2017 08:00 8,3 C 8,5 C 7,1 C 89 % 0 lf 1012,2 hPa 0,0 l/m 0,00 h 0,00 h 39 W/m 17,7 km/h (3 Bft) 98,37 %
02.11.2017 09:00 9,1 C 10,3 C 8,7 C 89 % 0 lf 1012,3 hPa 0,0 l/m 0,07 h 0,00 h 101 W/m 17,3 km/h (3 Bft) 96,53 %
02.11.2017 10:00 10,2 C 12,0 C 10,4 C 89 % 0 lf 1012,7 hPa 0,0 l/m 0,17 h 0,00 h 139 W/m 16,5 km/h (3 Bft) 95,87 %
02.11.2017 11:00 10,9 C 12,0 C 11,1 C 88 % 0 lf 1013,0 hPa 0,0 l/m 0,07 h 0,00 h 131 W/m 16,2 km/h (3 Bft) 96,30 %
02.11.2017 12:00 11,6 C 13,5 C 11,8 C 88 % 0 lf 1012,9 hPa 0,0 l/m 0,27 h 0,00 h 195 W/m 19,5 km/h (3 Bft) 96,58 %
02.11.2017 13:00 12,7 C 17,6 C 12,1 C 85 % 0 lf 1012,7 hPa 0,0 l/m 0,83 h 0,00 h 303 W/m 19,6 km/h (3 Bft) 96,22 %
02.11.2017 14:00 13,1 C 13,8 C 12,5 C 82 % 0 lf 1013,0 hPa 0,0 l/m 0,13 h 0,00 h 122 W/m 18,8 km/h (3 Bft) 98,08 %
02.11.2017 15:00 12,5 C 12,8 C 11,8 C 84 % 0 lf 1013,1 hPa 0,0 l/m 0,03 h 0,00 h 72 W/m 14,4 km/h (3 Bft) 95,02 %
02.11.2017 16:00 12,2 C 12,0 C 10,8 C 85 % 0 lf 1013,4 hPa 0,0 l/m 0,00 h 0,00 h 22 W/m 11,2 km/h (2 Bft) 97,08 %
02.11.2017 17:00 11,8 C 11,1 C 9,9 C 87 % 4 lf 1013,8 hPa 0,0 l/m 0,00 h 0,10 h 0 W/m 7,4 km/h (2 Bft) 97,08 %
02.11.2017 18:00 11,3 C 10,1 C 9,2 C 90 % 15 lf 1014,3 hPa 0,2 l/m 0,00 h 0,27 h 0 W/m 7,8 km/h (2 Bft) 95,51 %
02.11.2017 19:00 10,8 C 10,0 C 8,9 C 93 % 15 lf 1014,7 hPa 0,0 l/m 0,00 h 0,00 h 0 W/m 9,8 km/h (2 Bft) 97,93 %
02.11.2017 20:00 10,4 C 10,0 C 8,9 C 94 % 11 lf 1014,9 hPa 0,0 l/m 0,00 h 0,00 h 0 W/m 10,8 km/h (2 Bft) 97,93 %
02.11.2017 21:00 10,2 C 9,5 C 8,3 C 95 % 1 lf 1015,1 hPa 0,0 l/m 0,00 h 0,00 h 0 W/m 11,9 km/h (2 Bft) 93,24 %
02.11.2017 22:00 10,0 C 9,8 C 8,3 C 95 % 1 lf 1015,4 hPa 0,0 l/m 0,00 h 0,00 h 0 W/m 11,4 km/h (2 Bft) 99,22 %
02.11.2017 23:00 9,9 C 9,9 C 8,6 C 96 % 1 lf 1015,7 hPa 0,0 l/m 0,00 h 0,00 h 0 W/m 9,4 km/h (2 Bft) 96,51 %
03.11.2017 00:00 9,9 C 9,8 C 8,7 C 96 % 1 lf 1015,8 hPa 0,0 l/m 0,00 h 0,00 h 0 W/m 8,8 km/h (2 Bft) 91,26 %
03.11.2017 01:00 9,8 C 9,4 C 8,3 C 96 % 1 lf 1015,8 hPa 0,0 l/m 0,00 h 0,00 h 0 W/m 9,0 km/h (2 Bft) 96,15 %
03.11.2017 02:00 9,4 C 8,9 C 7,9 C 96 % 2 lf 1015,9 hPa 0,0 l/m 0,00 h 0,00 h 0 W/m 6,8 km/h (2 Bft) 98,01 %
03.11.2017 03:00 9,1 C 8,4 C 7,8 C 96 % 2 lf 1015,8 hPa 0,0 l/m 0,00 h 0,00 h 0 W/m 6,9 km/h (2 Bft) 95,59 %
03.11.2017 04:00 9,0 C 8,4 C 7,8 C 96 % 2 lf 1015,8 hPa 0,0 l/m 0,00 h 0,00 h 0 W/m 4,5 km/h (1 Bft) 97,65 %
03.11.2017 05:00 8,9 C 8,7 C 7,8 C 96 % 2 lf 1015,8 hPa 0,0 l/m 0,00 h 0,00 h 0 W/m 2,2 km/h (1 Bft) 94,80 %
03.11.2017 06:00 9,1 C 9,0 C 8,2 C 97 % 1 lf 1015,7 hPa 0,0 l/m 0,00 h 0,00 h 0 W/m 3,4 km/h (1 Bft) 96,83 %
03.11.2017 07:00 9,3 C 9,3 C 8,3 C 97 % 1 lf 1015,8 hPa 0,0 l/m 0,00 h 0,00 h 6 W/m 3,1 km/h (1 Bft) 98,84 %
03.11.2017 08:00 9,4 C 9,6 C 8,8 C 97 % 1 lf 1016,1 hPa 0,0 l/m 0,00 h 0,00 h 27 W/m 6,4 km/h (2 Bft) 94,59 %
03.11.2017 09:00 9,6 C 10,4 C 9,8 C 97 % 0 lf 1016,1 hPa 0,0 l/m 0,00 h 0,00 h 70 W/m 6,4 km/h (2 Bft) 96,09 %
03.11.2017 10:00 10,1 C 11,6 C 11,1 C 96 % 0 lf 1016,0 hPa 0,0 l/m 0,00 h 0,00 h 139 W/m 10,1 km/h (2 Bft) 97,72 %
03.11.2017 11:00 11,4 C 15,0 C 12,5 C 92 % 0 lf 1015,8 hPa 0,0 l/m 0,63 h 0,00 h 265 W/m 11,9 km/h (2 Bft) 94,95 %
03.11.2017 12:00 13,3 C 17,9 C 13,0 C 83 % 0 lf 1015,3 hPa 0,0 l/m 0,73 h 0,00 h 279 W/m 10,3 km/h (2 Bft) 97,31 %
03.11.2017 13:00 13,5 C 14,4 C 13,1 C 81 % 0 lf 1015,0 hPa 0,0 l/m 0,10 h 0,00 h 136 W/m 12,1 km/h (2 Bft) 97,37 %
03.11.2017 14:00 13,2 C 14,5 C 12,9 C 80 % 0 lf 1014,5 hPa 0,0 l/m 0,60 h 0,00 h 158 W/m 11,0 km/h (2 Bft) 96,29 %
03.11.2017 15:00 13,3 C 14,6 C 11,8 C 80 % 0 lf 1014,3 hPa 0,0 l/m 0,83 h 0,00 h 129 W/m 7,5 km/h (2 Bft) 94,95 %
03.11.2017 16:00 12,6 C 11,3 C 8,8 C 81 % 0 lf 1014,0 hPa 0,0 l/m 0,00 h 0,00 h 24 W/m 3,4 km/h (1 Bft) 98,22 %
03.11.2017 17:00 10,8 C 8,2 C 6,6 C 84 % 1 lf 1013,7 hPa 0,0 l/m 0,00 h 0,00 h 5 W/m 0,2 km/h (0 Bft) 96,09 %
03.11.2017 18:00 9,3 C 8,2 C 6,7 C 88 % 3 lf 1013,6 hPa 0,0 l/m 0,00 h 0,00 h 0 W/m 0,7 km/h (0 Bft) 95,32 %
03.11.2017 19:00 9,2 C 9,2 C 7,7 C 92 % 1 lf 1013,4 hPa 0,0 l/m 0,00 h 0,00 h 0 W/m 1,4 km/h (1 Bft) 96,66 %
03.11.2017 20:00 9,3 C 8,5 C 6,6 C 93 % 2 lf 1013,2 hPa 0,0 l/m 0,00 h 0,00 h 0 W/m 1,4 km/h (1 Bft) 96,44 %
03.11.2017 21:00 8,4 C 7,3 C 5,1 C 93 % 10 lf 1012,9 hPa 0,0 l/m 0,00 h 0,00 h 0 W/m 5,2 km/h (1 Bft) 97,01 %
03.11.2017 22:00 7,5 C 6,9 C 5,0 C 94 % 15 lf 1012,5 hPa 0,0 l/m 0,00 h 0,00 h 0 W/m 6,4 km/h (2 Bft) 96,16 %
03.11.2017 23:00 6,7 C 6,1 C 4,4 C 94 % 15 lf 1012,3 hPa 0,0 l/m 0,00 h 0,00 h 0 W/m 7,9 km/h (2 Bft) 94,80 %
04.11.2017 00:00 6,1 C 5,7 C 4,4 C 94 % 9 lf 1012,0 hPa 0,0 l/m 0,00 h 0,00 h 0 W/m 7,0 km/h (2 Bft) 98,49 %
04.11.2017 01:00 5,9 C 5,6 C 4,4 C 94 % 1 lf 1011,4 hPa 0,0 l/m 0,00 h 0,00 h 0 W/m 5,9 km/h (2 Bft) 96,36 %
04.11.2017 02:00 5,7 C 5,6 C 4,4 C 94 % 1 lf 1010,8 hPa 0,0 l/m 0,00 h 0,00 h 0 W/m 7,5 km/h (2 Bft) 94,45 %
04.11.2017 03:00 5,6 C 5,4 C 4,4 C 94 % 1 lf 1010,1 hPa 0,0 l/m 0,00 h 0,00 h 0 W/m 7,6 km/h (2 Bft) 97,72 %
04.11.2017 04:00 5,4 C 5,2 C 4,4 C 95 % 1 lf 1009,6 hPa 0,0 l/m 0,00 h 0,00 h 0 W/m 7,6 km/h (2 Bft) 95,12 %
04.11.2017 05:00 5,6 C 5,6 C 4,4 C 95 % 1 lf 1009,1 hPa 0,0 l/m 0,00 h 0,00 h 0 W/m 8,5 km/h (2 Bft) 97,59 %
04.11.2017 06:00 5,8 C 5,7 C 4,9 C 96 % 1 lf 1008,4 hPa 0,0 l/m 0,00 h 0,00 h 0 W/m 7,8 km/h (2 Bft) 95,96 %
04.11.2017 07:00 6,1 C 6,3 C 5,2 C 96 % 1 lf 1008,3 hPa 0,0 l/m 0,00 h 0,00 h 9 W/m 9,7 km/h (2 Bft) 95,59 %
04.11.2017 08:00 6,6 C 7,2 C 5,9 C 97 % 1 lf 1007,9 hPa 0,0 l/m 0,40 h 0,00 h 56 W/m 8,8 km/h (2 Bft) 97,01 %
04.11.2017 09:00 7,4 C 10,5 C 7,1 C 97 % 0 lf 1007,5 hPa 0,0 l/m 0,87 h 0,00 h 163 W/m 12,2 km/h (2 Bft) 98,08 %
04.11.2017 10:00 9,7 C 16,0 C 9,2 C 96 % 0 lf 1006,9 hPa 0,0 l/m 0,93 h 0,00 h 274 W/m 12,6 km/h (3 Bft) 93,54 %
04.11.2017 11:00 12,3 C 17,7 C 10,9 C 88 % 0 lf 1006,3 hPa 0,0 l/m 0,83 h 0,00 h 299 W/m 16,9 km/h (3 Bft) 96,44 %
04.11.2017 12:00 13,5 C 18,3 C 12,0 C 84 % 0 lf 1005,6 hPa 0,0 l/m 0,93 h 0,00 h 326 W/m 20,6 km/h (4 Bft) 96,71 %
04.11.2017 13:00 14,7 C 19,3 C 13,0 C 81 % 0 lf 1004,8 hPa 0,0 l/m 1,00 h 0,00 h 317 W/m 20,2 km/h (4 Bft) 98,65 %
04.11.2017 14:00 15,1 C 19,2 C 13,5 C 81 % 0 lf 1004,2 hPa 0,0 l/m 0,93 h 0,00 h 214 W/m 17,0 km/h (3 Bft) 94,48 %
04.11.2017 15:00 15,8 C 16,6 C 13,8 C 77 % 0 lf 1003,7 hPa 0,0 l/m 0,20 h 0,13 h 55 W/m 20,3 km/h (4 Bft) 95,42 %
04.11.2017 16:00 15,3 C 15,0 C 13,2 C 78 % 0 lf 1003,6 hPa 0,0 l/m 0,00 h 0,13 h 4 W/m 23,3 km/h (4 Bft) 98,23 %
04.11.2017 17:00 15,1 C 14,5 C 12,8 C 81 % 2 lf 1003,6 hPa 0,0 l/m 0,00 h 0,23 h 0 W/m 25,0 km/h (4 Bft) 95,72 %
04.11.2017 18:00 14,8 C 14,3 C 12,8 C 85 % 1 lf 1003,7 hPa 0,0 l/m 0,00 h 0,03 h 0 W/m 26,8 km/h (4 Bft) 94,97 %
04.11.2017 19:00 14,2 C 13,4 C 11,8 C 89 % 8 lf 1003,8 hPa 0,0 l/m 0,00 h 0,33 h 0 W/m 22,9 km/h (4 Bft) 98,92 %
04.11.2017 20:00 14,2 C 13,7 C 11,8 C 90 % 6 lf 1003,9 hPa 0,0 l/m 0,00 h 0,23 h 0 W/m 22,4 km/h (4 Bft) 96,66 %
04.11.2017 21:00 14,0 C 13,7 C 11,9 C 91 % 1 lf 1004,2 hPa 0,0 l/m 0,00 h 0,17 h 0 W/m 19,9 km/h (4 Bft) 94,51 %
04.11.2017 22:00 14,1 C 13,7 C 12,1 C 89 % 0 lf 1004,2 hPa 0,0 l/m 0,00 h 0,00 h 0 W/m 20,8 km/h (4 Bft) 98,08 %
04.11.2017 23:00 13,7 C 13,3 C 12,1 C 90 % 0 lf 1004,3 hPa 0,0 l/m 0,00 h 0,00 h 0 W/m 16,4 km/h (3 Bft) 96,71 %
05.11.2017 00:00 13,2 C 11,9 C 10,8 C 91 % 14 lf 1004,3 hPa 1,0 l/m 0,00 h 0,37 h 0 W/m 10,3 km/h (2 Bft) 95,18 %
05.11.2017 01:00 12,3 C 11,3 C 10,3 C 94 % 15 lf 1004,3 hPa 0,0 l/m 0,00 h 0,07 h 0 W/m 10,5 km/h (2 Bft) 97,59 %
05.11.2017 02:00 11,7 C 10,8 C 9,9 C 95 % 15 lf 1004,2 hPa 0,0 l/m 0,00 h 0,20 h 0 W/m 6,7 km/h (2 Bft) 94,93 %
05.11.2017 03:00 11,3 C 10,6 C 9,4 C 95 % 15 lf 1004,1 hPa 0,0 l/m 0,00 h 0,20 h 0 W/m 8,7 km/h (2 Bft) 98,22 %
05.11.2017 04:00 10,9 C 10,1 C 9,4 C 96 % 15 lf 1004,1 hPa 0,0 l/m 0,00 h 0,00 h 0 W/m 10,9 km/h (2 Bft) 90,07 %
05.11.2017 05:00 10,5 C 9,7 C 8,9 C 96 % 15 lf 1004,4 hPa 1,6 l/m 0,00 h 0,73 h 0 W/m 13,6 km/h (3 Bft) 94,58 %
05.11.2017 06:00 9,5 C 8,7 C 7,9 C 96 % 15 lf 1005,0 hPa 0,8 l/m 0,00 h 1,00 h 0 W/m 15,2 km/h (3 Bft) 97,42 %
05.11.2017 07:00 9,0 C 8,2 C 7,6 C 97 % 15 lf 1005,8 hPa 0,6 l/m 0,00 h 1,00 h 5 W/m 15,3 km/h (3 Bft) 99,07 %
05.11.2017 08:00 8,3 C 7,5 C 6,9 C 97 % 15 lf 1006,8 hPa 0,0 l/m 0,00 h 0,33 h 12 W/m 12,5 km/h (3 Bft) 92,88 %
05.11.2017 09:00 8,1 C 7,8 C 7,2 C 97 % 15 lf 1007,2 hPa 0,0 l/m 0,00 h 0,00 h 40 W/m 4,8 km/h (1 Bft) 97,67 %
05.11.2017 10:00 8,4 C 9,4 C 7,8 C 97 % 15 lf 1008,0 hPa 0,0 l/m 0,13 h 0,00 h 141 W/m 12,8 km/h (3 Bft) 97,88 %
05.11.2017 11:00 9,3 C 16,3 C 7,7 C 94 % 4 lf 1008,5 hPa 0,0 l/m 0,87 h 0,00 h 280 W/m 16,7 km/h (3 Bft) 95,39 %
05.11.2017 12:00 10,7 C 15,4 C 8,5 C 83 % 0 lf 1008,9 hPa 0,0 l/m 0,73 h 0,00 h 260 W/m 20,7 km/h (4 Bft) 96,50 %
05.11.2017 13:00 11,0 C 14,6 C 8,3 C 78 % 0 lf 1009,2 hPa 0,0 l/m 0,70 h 0,00 h 212 W/m 18,3 km/h (3 Bft) 98,44 %
05.11.2017 14:00 10,2 C 10,8 C 8,4 C 78 % 4 lf 1009,8 hPa 0,2 l/m 0,23 h 0,23 h 112 W/m 22,9 km/h (4 Bft) 94,23 %
05.11.2017 15:00 8,8 C 9,8 C 7,5 C 85 % 7 lf 1010,7 hPa 0,0 l/m 0,87 h 0,00 h 116 W/m 13,1 km/h (3 Bft) 97,02 %
05.11.2017 16:00 8,4 C 8,0 C 6,6 C 85 % 0 lf 1011,6 hPa 0,0 l/m 0,73 h 0,00 h 39 W/m 14,4 km/h (3 Bft) 97,72 %
05.11.2017 17:00 7,5 C 6,7 C 5,6 C 85 % 0 lf 1012,7 hPa 0,0 l/m 0,00 h 0,00 h 7 W/m 11,6 km/h (2 Bft) 95,23 %
05.11.2017 18:00 7,0 C 6,1 C 4,9 C 89 % 12 lf 1013,6 hPa 0,0 l/m 0,00 h 0,13 h 0 W/m 11,4 km/h (2 Bft) 95,69 %
05.11.2017 19:00 6,1 C 5,1 C 3,7 C 90 % 7 lf 1013,9 hPa 0,0 l/m 0,00 h 0,00 h 0 W/m 11,3 km/h (2 Bft) 97,28 %
05.11.2017 20:00 5,2 C 4,2 C 2,9 C 91 % 1 lf 1014,4 hPa 0,0 l/m 0,00 h 0,00 h 0 W/m 8,1 km/h (2 Bft) 95,15 %
05.11.2017 21:00 4,5 C 3,8 C 2,6 C 92 % 1 lf 1015,0 hPa 0,0 l/m 0,00 h 0,00 h 0 W/m 10,5 km/h (2 Bft) 99,00 %
05.11.2017 22:00 4,4 C 3,9 C 2,8 C 94 % 1 lf 1015,5 hPa 0,0 l/m 0,00 h 0,00 h 0 W/m 13,7 km/h (3 Bft) 94,87 %
05.11.2017 23:00 4,1 C 3,3 C 2,2 C 94 % 2 lf 1015,9 hPa 0,0 l/m 0,00 h 0,00 h 0 W/m 9,7 km/h (2 Bft) 95,69 %
Min-Datum _ 05.11.17 30.10.17 30.10.17 30.10.17 30.10.17 04.11.17 - - - - 30.10.17 05.11.17
_ Min-Zeit 23:44 06:44 06:34 13:22 08:50 16:22 - - - - 17:52 04:05
Minimum _ 3,9 C 3,3 C 2,2 C 69 % 0 lf 1003,5 hPa - - - - 0,0 km/h (0 Bft) 4,76 %
Max-Datum _ 04.11.17 01.11.17 03.11.17 03.11.17 31.10.17 30.10.17 05.11.17 30.10.17 05.11.17 30.10.17 05.11.17 30.10.17
_ Max-Zeit 15:18 13:28 11:56 06:00 13:58 21:48 05:24 12:10 05:40 12:54 14:30 00:38
Maximum _ 15,9 C 23,3 C 13,9 C 97 % 15 lf 1027,9 hPa 1,6 l/m 0,07 h 0,08 h 554 W/m 41,8 km/h
W (6 Bft)
100,00 %
Durchschnitt _ 9,4 C 10,0 C 8,0 C 89 % 3 lf 1016,3 hPa #4,6 l/m #25:52 h #7:24 h 131 W/m 11,6 km/h (2 Bft) 96,42 %
© 2017 W. Hausmann